createdAt,value
2023-05-07T00:00:15.559Z,16.30
2023-05-07T00:01:15.317Z,16.29
2023-05-07T00:02:15.301Z,16.30
2023-05-07T00:03:15.397Z,16.30
2023-05-07T00:04:15.472Z,16.32
2023-05-07T00:05:15.662Z,16.32
2023-05-07T00:06:15.252Z,16.30
2023-05-07T00:07:15.252Z,16.30
2023-05-07T00:08:15.340Z,16.30
2023-05-07T00:09:15.210Z,16.27
2023-05-07T00:10:15.216Z,16.27
2023-05-07T00:11:15.204Z,16.29
2023-05-07T00:12:15.176Z,16.26
2023-05-07T00:13:15.214Z,16.26
2023-05-07T00:14:15.190Z,16.25
2023-05-07T00:15:15.159Z,16.23
2023-05-07T00:16:15.169Z,16.18
2023-05-07T00:17:15.134Z,16.22
2023-05-07T00:18:15.131Z,16.18
2023-05-07T00:19:15.114Z,16.16
2023-05-07T00:20:15.114Z,16.16
2023-05-07T00:21:15.098Z,16.11
2023-05-07T00:22:15.074Z,16.10
2023-05-07T00:23:15.070Z,16.10
2023-05-07T00:24:15.084Z,16.08
2023-05-07T00:25:15.058Z,16.07
2023-05-07T00:26:15.062Z,16.08
2023-05-07T00:27:15.027Z,16.07
2023-05-07T00:28:15.042Z,16.04
2023-05-07T00:29:14.994Z,16.03
2023-05-07T00:30:15.000Z,16.01
2023-05-07T00:31:15.003Z,15.99
2023-05-07T00:32:15.106Z,15.99
2023-05-07T00:33:14.964Z,15.98
2023-05-07T00:34:14.970Z,15.95
2023-05-07T00:35:14.965Z,15.91
2023-05-07T00:36:14.932Z,15.91
2023-05-07T00:37:14.924Z,15.92
2023-05-07T00:38:14.905Z,15.91
2023-05-07T00:39:15.108Z,15.89
2023-05-07T00:40:14.884Z,15.89
2023-05-07T00:41:14.876Z,15.86
2023-05-07T00:42:14.860Z,15.86
2023-05-07T00:43:14.854Z,15.85
2023-05-07T00:44:14.854Z,15.81
2023-05-07T00:45:14.816Z,15.81
2023-05-07T00:46:14.872Z,15.81
2023-05-07T00:47:14.806Z,15.80
2023-05-07T00:48:15.251Z,15.80
2023-05-07T00:49:14.785Z,15.78
2023-05-07T00:50:14.851Z,15.77
2023-05-07T00:51:14.776Z,15.78
2023-05-07T00:52:14.757Z,15.76
2023-05-07T00:53:14.725Z,15.76
2023-05-07T00:54:14.736Z,15.74
2023-05-07T00:55:14.748Z,15.71
2023-05-07T00:56:14.717Z,15.71
2023-05-07T00:57:14.712Z,15.71
2023-05-07T00:58:14.690Z,15.68
2023-05-07T00:59:14.733Z,15.68
2023-05-07T01:00:14.935Z,15.68
2023-05-07T01:01:14.771Z,15.66
2023-05-07T01:02:14.828Z,15.67
2023-05-07T01:03:14.670Z,15.62
2023-05-07T01:04:14.681Z,15.59
2023-05-07T01:05:14.594Z,15.53
2023-05-07T01:06:14.606Z,15.48
2023-05-07T01:07:14.602Z,15.48
2023-05-07T01:08:14.572Z,15.46
2023-05-07T01:09:14.565Z,15.46
2023-05-07T01:10:14.699Z,15.48
2023-05-07T01:11:14.547Z,15.48
2023-05-07T01:12:14.552Z,15.48
2023-05-07T01:13:14.556Z,15.48
2023-05-07T01:14:14.525Z,15.48
2023-05-07T01:15:14.495Z,15.48
2023-05-07T01:16:14.554Z,15.48
2023-05-07T01:17:14.672Z,15.48
2023-05-07T01:18:14.483Z,15.48
2023-05-07T01:19:14.482Z,15.46
2023-05-07T01:20:14.761Z,15.44
2023-05-07T01:21:14.594Z,15.44
2023-05-07T01:22:14.429Z,15.44
2023-05-07T01:23:14.541Z,15.43
2023-05-07T01:24:14.522Z,15.41
2023-05-07T01:25:14.497Z,15.40
2023-05-07T01:26:14.409Z,15.38
2023-05-07T01:27:14.583Z,15.37
2023-05-07T01:28:14.370Z,15.38
2023-05-07T01:29:14.367Z,15.35
2023-05-07T01:30:14.463Z,15.33
2023-05-07T01:31:14.382Z,15.33
2023-05-07T01:32:14.320Z,15.30
2023-05-07T01:33:14.322Z,15.30
2023-05-07T01:34:14.291Z,15.28
2023-05-07T01:35:14.292Z,15.28
2023-05-07T01:36:14.314Z,15.30
2023-05-07T01:37:14.275Z,15.28
2023-05-07T01:38:14.280Z,15.25
2023-05-07T01:39:14.268Z,15.27
2023-05-07T01:40:14.245Z,15.22
2023-05-07T01:41:14.229Z,15.22
2023-05-07T01:42:14.220Z,15.20
2023-05-07T01:43:14.182Z,15.22
2023-05-07T01:44:14.200Z,15.23
2023-05-07T01:45:14.172Z,15.20
2023-05-07T01:46:14.171Z,15.19
2023-05-07T01:47:14.149Z,15.16
2023-05-07T01:48:14.149Z,15.16
2023-05-07T01:49:14.152Z,15.15
2023-05-07T01:50:14.299Z,15.13
2023-05-07T01:51:14.097Z,15.11
2023-05-07T01:52:14.091Z,15.12
2023-05-07T01:53:14.079Z,15.11
2023-05-07T01:54:14.090Z,15.11
2023-05-07T01:55:14.054Z,15.11
2023-05-07T01:56:14.069Z,15.09
2023-05-07T01:57:14.065Z,15.07
2023-05-07T01:58:14.067Z,15.05
2023-05-07T01:59:14.037Z,15.04
2023-05-07T02:00:14.111Z,15.03
2023-05-07T02:01:14.072Z,15.01
2023-05-07T02:02:14.060Z,15.01
2023-05-07T02:03:14.123Z,15.00
2023-05-07T02:04:14.062Z,15.01
2023-05-07T02:05:13.985Z,14.97
2023-05-07T02:06:13.960Z,14.94
2023-05-07T02:07:13.955Z,14.93
2023-05-07T02:08:13.941Z,14.91
2023-05-07T02:09:13.945Z,14.93
2023-05-07T02:10:13.993Z,14.93
2023-05-07T02:11:13.918Z,14.93
2023-05-07T02:12:13.896Z,14.93
2023-05-07T02:13:13.922Z,14.91
2023-05-07T02:14:13.882Z,14.93
2023-05-07T02:15:13.902Z,14.94
2023-05-07T02:16:13.885Z,14.93
2023-05-07T02:17:13.843Z,14.91
2023-05-07T02:18:13.837Z,14.93
2023-05-07T02:19:13.844Z,14.91
2023-05-07T02:20:13.815Z,14.93
2023-05-07T02:21:13.836Z,14.91
2023-05-07T02:22:13.786Z,14.91
2023-05-07T02:23:13.785Z,14.91
2023-05-07T02:24:13.778Z,14.87
2023-05-07T02:25:13.765Z,14.86
2023-05-07T02:26:13.756Z,14.82
2023-05-07T02:27:13.739Z,14.80
2023-05-07T02:28:13.727Z,14.80
2023-05-07T02:29:13.730Z,14.82
2023-05-07T02:30:13.736Z,14.82
2023-05-07T02:31:13.710Z,14.82
2023-05-07T02:32:13.740Z,14.82
2023-05-07T02:33:13.837Z,14.82
2023-05-07T02:34:13.660Z,14.82
2023-05-07T02:35:13.668Z,14.80
2023-05-07T02:36:13.657Z,14.79
2023-05-07T02:37:13.632Z,14.78
2023-05-07T02:38:13.614Z,14.78
2023-05-07T02:39:13.610Z,14.75
2023-05-07T02:40:13.814Z,14.74
2023-05-07T02:41:13.590Z,14.71
2023-05-07T02:42:13.588Z,14.69
2023-05-07T02:43:13.591Z,14.67
2023-05-07T02:44:13.556Z,14.67
2023-05-07T02:45:13.552Z,14.66
2023-05-07T02:46:13.566Z,14.64
2023-05-07T02:47:13.529Z,14.61
2023-05-07T02:48:13.522Z,14.60
2023-05-07T02:49:13.525Z,14.60
2023-05-07T02:50:13.633Z,14.59
2023-05-07T02:51:13.487Z,14.57
2023-05-07T02:52:13.461Z,14.56
2023-05-07T02:53:13.477Z,14.57
2023-05-07T02:54:13.447Z,14.56
2023-05-07T02:55:13.446Z,14.56
2023-05-07T02:56:13.434Z,14.54
2023-05-07T02:57:13.421Z,14.54
2023-05-07T02:58:13.401Z,14.52
2023-05-07T02:59:13.397Z,14.48
2023-05-07T03:00:13.383Z,14.48
2023-05-07T03:01:13.409Z,14.46
2023-05-07T03:02:13.365Z,14.46
2023-05-07T03:03:13.413Z,14.46
2023-05-07T03:04:13.370Z,14.45
2023-05-07T03:05:13.371Z,14.41
2023-05-07T03:06:13.336Z,14.39
2023-05-07T03:07:13.320Z,14.39
2023-05-07T03:08:13.296Z,14.36
2023-05-07T03:09:13.292Z,14.36
2023-05-07T03:10:13.410Z,14.31
2023-05-07T03:11:13.285Z,14.31
2023-05-07T03:12:13.251Z,14.29
2023-05-07T03:13:13.279Z,14.27
2023-05-07T03:14:13.230Z,14.26
2023-05-07T03:15:13.231Z,14.24
2023-05-07T03:16:13.269Z,14.23
2023-05-07T03:17:13.199Z,14.23
2023-05-07T03:18:13.236Z,14.21
2023-05-07T03:19:13.178Z,14.17
2023-05-07T03:20:13.417Z,14.16
2023-05-07T03:21:13.164Z,14.12
2023-05-07T03:22:13.159Z,14.13
2023-05-07T03:23:13.135Z,14.13
2023-05-07T03:24:13.123Z,14.11
2023-05-07T03:25:13.105Z,14.11
2023-05-07T03:26:13.109Z,14.08
2023-05-07T03:27:13.107Z,14.06
2023-05-07T03:28:13.077Z,14.08
2023-05-07T03:29:13.067Z,14.08
2023-05-07T03:30:13.242Z,14.06
2023-05-07T03:31:13.183Z,14.05
2023-05-07T03:32:13.031Z,14.04
2023-05-07T03:33:13.030Z,14.02
2023-05-07T03:34:13.025Z,14.02
2023-05-07T03:35:13.020Z,13.99
2023-05-07T03:36:13.010Z,14.01
2023-05-07T03:37:13.302Z,13.96
2023-05-07T03:38:12.958Z,13.94
2023-05-07T03:39:12.973Z,13.94
2023-05-07T03:40:13.534Z,13.93
2023-05-07T03:41:12.940Z,13.88
2023-05-07T03:42:12.935Z,13.84
2023-05-07T03:43:12.926Z,13.81
2023-05-07T03:44:12.919Z,13.81
2023-05-07T03:45:12.906Z,13.81
2023-05-07T03:46:12.902Z,13.80
2023-05-07T03:47:13.034Z,13.80
2023-05-07T03:48:12.920Z,13.79
2023-05-07T03:49:12.860Z,13.80
2023-05-07T03:50:13.120Z,13.80
2023-05-07T03:51:12.843Z,13.81
2023-05-07T03:52:12.832Z,13.81
2023-05-07T03:53:12.816Z,13.81
2023-05-07T03:54:12.797Z,13.81
2023-05-07T03:55:12.793Z,13.79
2023-05-07T03:56:12.781Z,13.80
2023-05-07T03:57:12.771Z,13.80
2023-05-07T03:58:12.755Z,13.79
2023-05-07T03:59:12.761Z,13.79
2023-05-07T04:00:12.944Z,13.76
2023-05-07T04:01:12.733Z,13.75
2023-05-07T04:02:12.767Z,13.72
2023-05-07T04:03:12.774Z,13.72
2023-05-07T04:04:12.799Z,13.68
2023-05-07T04:05:12.684Z,13.69
2023-05-07T04:06:12.682Z,13.68
2023-05-07T04:07:12.662Z,13.71
2023-05-07T04:08:12.645Z,13.66
2023-05-07T04:09:12.652Z,13.66
2023-05-07T04:10:12.777Z,13.66
2023-05-07T04:11:12.617Z,13.63
2023-05-07T04:12:12.609Z,13.62
2023-05-07T04:13:12.621Z,13.63
2023-05-07T04:14:12.580Z,13.63
2023-05-07T04:15:12.578Z,13.63
2023-05-07T04:16:12.602Z,13.62
2023-05-07T04:17:12.629Z,13.63
2023-05-07T04:18:12.532Z,13.65
2023-05-07T04:19:12.523Z,13.65
2023-05-07T04:20:12.762Z,13.65
2023-05-07T04:21:12.511Z,13.65
2023-05-07T04:22:12.495Z,13.66
2023-05-07T04:23:12.488Z,13.65
2023-05-07T04:24:12.469Z,13.65
2023-05-07T04:25:12.464Z,13.65
2023-05-07T04:26:12.449Z,13.66
2023-05-07T04:27:12.441Z,13.65
2023-05-07T04:28:12.437Z,13.66
2023-05-07T04:29:12.452Z,13.65
2023-05-07T04:30:12.810Z,13.65
2023-05-07T04:31:12.405Z,13.66
2023-05-07T04:32:12.432Z,13.65
2023-05-07T04:33:12.422Z,13.66
2023-05-07T04:34:12.359Z,13.66
2023-05-07T04:35:12.370Z,13.66
2023-05-07T04:36:12.361Z,13.66
2023-05-07T04:37:12.339Z,13.66
2023-05-07T04:38:12.321Z,13.68
2023-05-07T04:39:12.318Z,13.68
2023-05-07T04:40:12.540Z,13.66
2023-05-07T04:41:12.285Z,13.66
2023-05-07T04:42:12.289Z,13.66
2023-05-07T04:43:12.270Z,13.66
2023-05-07T04:44:12.252Z,13.68
2023-05-07T04:45:12.235Z,13.68
2023-05-07T04:46:12.269Z,13.68
2023-05-07T04:47:12.230Z,13.68
2023-05-07T04:48:12.223Z,13.66
2023-05-07T04:49:12.209Z,13.69
2023-05-07T04:50:12.353Z,13.69
2023-05-07T04:51:12.175Z,13.69
2023-05-07T04:52:12.171Z,13.71
2023-05-07T04:53:12.163Z,13.68
2023-05-07T04:54:12.141Z,13.66
2023-05-07T04:55:12.133Z,13.68
2023-05-07T04:56:12.118Z,13.66
2023-05-07T04:57:12.119Z,13.68
2023-05-07T04:58:12.104Z,13.68
2023-05-07T04:59:12.087Z,13.68
2023-05-07T05:00:12.235Z,13.68
2023-05-07T05:01:12.126Z,13.66
2023-05-07T05:02:12.091Z,13.65
2023-05-07T05:03:12.079Z,13.66
2023-05-07T05:04:12.073Z,13.66
2023-05-07T05:05:12.033Z,13.68
2023-05-07T05:06:12.023Z,13.68
2023-05-07T05:07:11.997Z,13.69
2023-05-07T05:08:11.998Z,13.71
2023-05-07T05:09:12.098Z,13.69
2023-05-07T05:10:12.222Z,13.71
2023-05-07T05:11:11.953Z,13.69
2023-05-07T05:12:11.953Z,13.69
2023-05-07T05:13:11.995Z,13.71
2023-05-07T05:14:11.932Z,13.71
2023-05-07T05:15:11.998Z,13.72
2023-05-07T05:16:11.957Z,13.73
2023-05-07T05:17:11.903Z,13.73
2023-05-07T05:18:11.896Z,13.75
2023-05-07T05:19:11.877Z,13.75
2023-05-07T05:20:12.184Z,13.76
2023-05-07T05:21:12.451Z,13.80
2023-05-07T05:22:11.959Z,13.83
2023-05-07T05:23:11.959Z,13.88
2023-05-07T05:24:12.141Z,13.91
2023-05-07T05:25:14.407Z,13.96
2023-05-07T05:26:11.806Z,13.98
2023-05-07T05:27:12.588Z,14.01
2023-05-07T05:28:13.398Z,14.02
2023-05-07T05:29:11.794Z,14.04
2023-05-07T05:30:12.001Z,14.05
2023-05-07T05:31:11.773Z,14.05
2023-05-07T05:32:11.744Z,14.05
2023-05-07T05:33:11.756Z,14.06
2023-05-07T05:34:11.761Z,14.08
2023-05-07T05:35:11.717Z,14.09
2023-05-07T05:36:11.696Z,14.11
2023-05-07T05:37:11.689Z,14.12
2023-05-07T05:38:12.642Z,14.12
2023-05-07T05:39:11.694Z,14.16
2023-05-07T05:40:12.040Z,14.17
2023-05-07T05:41:11.807Z,14.19
2023-05-07T05:42:11.650Z,14.17
2023-05-07T05:43:12.607Z,14.20
2023-05-07T05:44:11.734Z,14.20
2023-05-07T05:45:12.311Z,14.21
2023-05-07T05:46:11.623Z,14.21
2023-05-07T05:47:11.615Z,14.24
2023-05-07T05:48:11.619Z,14.24
2023-05-07T05:49:11.579Z,14.24
2023-05-07T05:50:12.074Z,14.27
2023-05-07T05:51:11.835Z,14.29
2023-05-07T05:52:11.809Z,14.34
2023-05-07T05:53:11.781Z,14.38
2023-05-07T05:54:11.521Z,14.42
2023-05-07T05:55:11.520Z,14.48
2023-05-07T05:56:11.507Z,14.56
2023-05-07T05:57:11.467Z,14.61
2023-05-07T05:58:11.483Z,14.67
2023-05-07T05:59:11.484Z,14.74
2023-05-07T06:00:11.722Z,14.78
2023-05-07T06:01:11.567Z,14.82
2023-05-07T06:02:11.464Z,14.87
2023-05-07T06:03:11.450Z,14.91
2023-05-07T06:04:11.404Z,14.97
2023-05-07T06:05:11.416Z,15.01
2023-05-07T06:06:11.367Z,15.05
2023-05-07T06:07:11.372Z,15.11
2023-05-07T06:08:11.379Z,15.16
2023-05-07T06:09:11.340Z,15.19
2023-05-07T06:10:11.734Z,15.22
2023-05-07T06:11:11.323Z,15.27
2023-05-07T06:12:11.300Z,15.31
2023-05-07T06:13:11.360Z,15.33
2023-05-07T06:14:11.286Z,15.38
2023-05-07T06:15:11.279Z,15.38
2023-05-07T06:16:11.302Z,15.41
2023-05-07T06:17:11.270Z,15.43
2023-05-07T06:18:11.304Z,15.44
2023-05-07T06:19:11.243Z,15.46
2023-05-07T06:20:11.562Z,15.49
2023-05-07T06:21:11.223Z,15.51
2023-05-07T06:22:11.228Z,15.52
2023-05-07T06:23:12.173Z,15.55
2023-05-07T06:24:11.258Z,15.56
2023-05-07T06:25:12.647Z,15.58
2023-05-07T06:26:11.190Z,15.59
2023-05-07T06:27:11.874Z,15.59
2023-05-07T06:28:11.282Z,15.59
2023-05-07T06:29:12.168Z,15.60
2023-05-07T06:30:11.471Z,15.62
2023-05-07T06:31:12.109Z,15.64
2023-05-07T06:32:11.306Z,15.64
2023-05-07T06:33:11.817Z,15.66
2023-05-07T06:34:11.119Z,15.66
2023-05-07T06:35:11.771Z,15.66
2023-05-07T06:36:11.095Z,15.67
2023-05-07T06:37:11.730Z,15.67
2023-05-07T06:38:11.063Z,15.68
2023-05-07T06:39:11.741Z,15.67
2023-05-07T06:40:11.360Z,15.68
2023-05-07T06:41:11.037Z,15.68
2023-05-07T06:42:11.014Z,15.70
2023-05-07T06:43:10.969Z,15.73
2023-05-07T06:44:10.981Z,15.76
2023-05-07T06:45:10.949Z,15.78
2023-05-07T06:46:10.970Z,15.84
2023-05-07T06:47:11.351Z,15.86
2023-05-07T06:48:10.985Z,15.89
2023-05-07T06:49:10.912Z,15.92
2023-05-07T06:50:11.191Z,15.93
2023-05-07T06:51:10.878Z,15.96
2023-05-07T06:52:10.876Z,15.99
2023-05-07T06:53:10.864Z,16.04
2023-05-07T06:54:10.870Z,16.06
2023-05-07T06:55:10.859Z,16.08
2023-05-07T06:56:10.836Z,16.10
2023-05-07T06:57:10.835Z,16.14
2023-05-07T06:58:10.824Z,16.16
2023-05-07T06:59:10.802Z,16.18
2023-05-07T07:00:11.320Z,16.25
2023-05-07T07:01:11.103Z,16.32
2023-05-07T07:02:11.233Z,16.36
2023-05-07T07:03:10.931Z,16.44
2023-05-07T07:04:11.084Z,16.51
2023-05-07T07:05:11.019Z,16.54
2023-05-07T07:06:10.800Z,16.57
2023-05-07T07:07:10.938Z,16.60
2023-05-07T07:08:11.484Z,16.66
2023-05-07T07:09:11.310Z,16.67
2023-05-07T07:10:11.323Z,16.72
2023-05-07T07:11:10.660Z,16.75
2023-05-07T07:12:10.657Z,16.80
2023-05-07T07:13:10.657Z,16.84
2023-05-07T07:14:10.638Z,16.88
2023-05-07T07:15:10.634Z,16.92
2023-05-07T07:16:10.710Z,16.96
2023-05-07T07:17:10.585Z,17.02
2023-05-07T07:18:10.692Z,17.05
2023-05-07T07:19:10.563Z,17.10
2023-05-07T07:20:12.062Z,17.14
2023-05-07T07:21:10.538Z,17.20
2023-05-07T07:22:10.540Z,17.25
2023-05-07T07:23:10.640Z,17.33
2023-05-07T07:24:10.512Z,17.36
2023-05-07T07:25:11.334Z,17.42
2023-05-07T07:26:10.533Z,17.49
2023-05-07T07:27:10.706Z,17.53
2023-05-07T07:28:10.485Z,17.58
2023-05-07T07:29:10.562Z,17.65
2023-05-07T07:30:10.589Z,17.71
2023-05-07T07:31:11.245Z,17.77
2023-05-07T07:32:10.475Z,17.83
2023-05-07T07:33:10.608Z,17.92
2023-05-07T07:34:10.431Z,17.99
2023-05-07T07:35:12.712Z,18.07
2023-05-07T07:36:10.444Z,18.14
2023-05-07T07:37:11.105Z,18.23
2023-05-07T07:38:10.432Z,18.29
2023-05-07T07:39:10.640Z,18.36
2023-05-07T07:40:10.756Z,18.44
2023-05-07T07:41:10.477Z,18.53
2023-05-07T07:42:10.429Z,18.57
2023-05-07T07:43:10.405Z,18.65
2023-05-07T07:44:10.331Z,18.69
2023-05-07T07:45:10.332Z,18.76
2023-05-07T07:46:10.305Z,18.83
2023-05-07T07:47:10.334Z,18.91
2023-05-07T07:48:10.569Z,18.91
2023-05-07T07:49:10.241Z,18.96
2023-05-07T07:50:10.602Z,19.05
2023-05-07T07:51:11.782Z,19.09
2023-05-07T07:52:10.587Z,19.13
2023-05-07T07:53:10.349Z,19.13
2023-05-07T07:54:10.464Z,19.13
2023-05-07T07:55:10.299Z,19.16
2023-05-07T07:56:10.319Z,19.20
2023-05-07T07:57:10.232Z,19.23
2023-05-07T07:58:10.409Z,19.28
2023-05-07T07:59:10.202Z,19.32
2023-05-07T08:00:10.413Z,19.39
2023-05-07T08:01:11.088Z,19.43
2023-05-07T08:02:10.272Z,19.47
2023-05-07T08:03:10.303Z,19.53
2023-05-07T08:04:10.201Z,19.57
2023-05-07T08:05:10.311Z,19.60
2023-05-07T08:06:10.201Z,19.61
2023-05-07T08:07:10.108Z,19.67
2023-05-07T08:08:10.109Z,19.70
2023-05-07T08:09:10.365Z,19.72
2023-05-07T08:10:11.175Z,19.78
2023-05-07T08:11:10.061Z,19.80
2023-05-07T08:12:10.035Z,19.83
2023-05-07T08:13:10.187Z,19.86
2023-05-07T08:14:10.132Z,19.89
2023-05-07T08:15:10.065Z,19.97
2023-05-07T08:16:10.124Z,20.00
2023-05-07T08:17:10.029Z,20.02
2023-05-07T08:18:10.051Z,20.02
2023-05-07T08:19:10.052Z,20.04
2023-05-07T08:20:10.098Z,20.07
2023-05-07T08:21:10.037Z,20.10
2023-05-07T08:22:10.033Z,20.15
2023-05-07T08:23:09.988Z,20.19
2023-05-07T08:24:09.880Z,20.16
2023-05-07T08:25:09.851Z,20.17
2023-05-07T08:26:09.856Z,20.20
2023-05-07T08:27:09.888Z,20.22
2023-05-07T08:28:10.219Z,20.25
2023-05-07T08:29:09.822Z,20.23
2023-05-07T08:30:09.990Z,20.25
2023-05-07T08:31:09.859Z,20.20
2023-05-07T08:32:09.795Z,20.16
2023-05-07T08:33:09.825Z,20.16
2023-05-07T08:34:10.311Z,20.17
2023-05-07T08:35:09.749Z,20.17
2023-05-07T08:36:09.749Z,20.17
2023-05-07T08:37:09.733Z,20.17
2023-05-07T08:38:09.714Z,20.17
2023-05-07T08:39:09.730Z,20.17
2023-05-07T08:40:12.168Z,20.16
2023-05-07T08:41:09.682Z,20.16
2023-05-07T08:42:09.681Z,20.16
2023-05-07T08:43:09.675Z,20.17
2023-05-07T08:44:09.657Z,20.17
2023-05-07T08:45:09.639Z,20.19
2023-05-07T08:46:10.421Z,20.19
2023-05-07T08:47:09.624Z,20.19
2023-05-07T08:48:09.687Z,20.20
2023-05-07T08:49:09.606Z,20.22
2023-05-07T08:50:09.684Z,20.23
2023-05-07T08:51:09.580Z,20.26
2023-05-07T08:52:10.278Z,20.30
2023-05-07T08:53:09.561Z,20.30
2023-05-07T08:54:09.583Z,20.34
2023-05-07T08:55:09.604Z,20.37
2023-05-07T08:56:09.529Z,20.38
2023-05-07T08:57:09.511Z,20.42
2023-05-07T08:58:09.508Z,20.48
2023-05-07T08:59:09.492Z,20.50
2023-05-07T09:00:09.480Z,20.53
2023-05-07T09:01:09.492Z,20.54
2023-05-07T09:02:10.077Z,20.60
2023-05-07T09:03:09.666Z,20.61
2023-05-07T09:04:09.540Z,20.66
2023-05-07T09:05:09.828Z,20.71
2023-05-07T09:06:09.423Z,20.75
2023-05-07T09:07:09.402Z,20.81
2023-05-07T09:08:09.409Z,20.87
2023-05-07T09:09:09.394Z,20.91
2023-05-07T09:10:09.577Z,20.96
2023-05-07T09:11:09.356Z,21.03
2023-05-07T09:12:09.361Z,21.06
2023-05-07T09:13:09.449Z,21.08
2023-05-07T09:14:09.848Z,21.11
2023-05-07T09:15:09.602Z,21.15
2023-05-07T09:16:09.327Z,21.16
2023-05-07T09:17:09.301Z,21.19
2023-05-07T09:18:09.307Z,21.27
2023-05-07T09:19:09.353Z,21.31
2023-05-07T09:20:11.093Z,21.36
2023-05-07T09:21:09.259Z,21.40
2023-05-07T09:22:09.980Z,21.43
2023-05-07T09:23:09.257Z,21.52
2023-05-07T09:24:09.402Z,21.55
2023-05-07T09:25:09.728Z,21.56
2023-05-07T09:26:09.799Z,21.61
2023-05-07T09:27:09.477Z,21.64
2023-05-07T09:28:09.946Z,21.70
2023-05-07T09:29:09.258Z,21.74
2023-05-07T09:30:09.380Z,21.82
2023-05-07T09:31:09.252Z,21.86
2023-05-07T09:32:09.337Z,21.93
2023-05-07T09:33:09.302Z,21.96
2023-05-07T09:34:10.491Z,21.99
2023-05-07T09:35:12.130Z,22.02
2023-05-07T09:36:10.908Z,22.08
2023-05-07T09:37:09.107Z,22.12
2023-05-07T09:38:09.261Z,22.15
2023-05-07T09:39:09.138Z,22.20
2023-05-07T09:40:09.135Z,22.26
2023-05-07T09:41:09.159Z,22.30
2023-05-07T09:42:09.071Z,22.36
2023-05-07T09:43:09.142Z,22.42
2023-05-07T09:44:10.029Z,22.48
2023-05-07T09:45:09.223Z,22.57
2023-05-07T09:46:09.089Z,22.60
2023-05-07T09:47:09.146Z,22.66
2023-05-07T09:48:09.170Z,22.69
2023-05-07T09:50:09.091Z,22.84
2023-05-07T09:51:10.096Z,22.85
2023-05-07T09:52:08.930Z,22.86
2023-05-07T09:53:08.907Z,22.91
2023-05-07T09:54:08.880Z,22.96
2023-05-07T09:55:09.044Z,22.99
2023-05-07T09:56:08.873Z,23.04
2023-05-07T09:57:08.884Z,23.07
2023-05-07T09:58:08.844Z,23.12
2023-05-07T09:59:08.838Z,23.15
2023-05-07T10:00:08.903Z,23.21
2023-05-07T10:01:08.826Z,23.19
2023-05-07T10:02:08.824Z,23.23
2023-05-07T10:03:08.852Z,23.32
2023-05-07T10:04:08.796Z,23.34
2023-05-07T10:05:08.935Z,23.35
2023-05-07T10:06:08.807Z,23.37
2023-05-07T10:07:08.748Z,23.39
2023-05-07T10:08:08.736Z,23.47
2023-05-07T10:09:08.733Z,23.53
2023-05-07T10:10:08.837Z,23.57
2023-05-07T10:11:08.722Z,23.63
2023-05-07T10:12:09.519Z,23.71
2023-05-07T10:13:08.971Z,23.77
2023-05-07T10:14:09.065Z,23.81
2023-05-07T10:15:08.826Z,23.84
2023-05-07T10:16:08.716Z,23.87
2023-05-07T10:17:08.712Z,23.94
2023-05-07T10:18:08.728Z,24.04
2023-05-07T10:19:08.650Z,24.08
2023-05-07T10:20:08.743Z,24.11
2023-05-07T10:21:09.180Z,24.14
2023-05-07T10:22:08.682Z,24.18
2023-05-07T10:23:08.658Z,24.26
2023-05-07T10:24:08.674Z,24.31
2023-05-07T10:25:09.170Z,24.42
2023-05-07T10:26:08.580Z,24.52
2023-05-07T10:27:08.695Z,24.64
2023-05-07T10:28:08.687Z,24.74
2023-05-07T10:29:08.576Z,24.84
2023-05-07T10:30:08.545Z,24.90
2023-05-07T10:31:08.574Z,24.93
2023-05-07T10:32:08.509Z,24.93
2023-05-07T10:33:08.541Z,24.94
2023-05-07T10:34:08.496Z,24.97
2023-05-07T10:35:08.638Z,24.90
2023-05-07T10:36:08.528Z,24.94
2023-05-07T10:37:08.565Z,25.04
2023-05-07T10:38:08.429Z,25.12
2023-05-07T10:39:08.439Z,25.20
2023-05-07T10:40:08.418Z,25.22
2023-05-07T10:41:08.553Z,25.27
2023-05-07T10:42:08.484Z,25.36
2023-05-07T10:43:10.808Z,25.44
2023-05-07T10:44:08.435Z,25.49
2023-05-07T10:45:09.385Z,25.56
2023-05-07T10:46:08.598Z,25.59
2023-05-07T10:47:08.397Z,25.63
2023-05-07T10:48:20.850Z,25.67
2023-05-07T10:49:09.363Z,25.64
2023-05-07T10:50:08.471Z,25.60
2023-05-07T10:51:08.323Z,25.63
2023-05-07T10:52:08.533Z,25.69
2023-05-07T10:53:08.310Z,25.76
2023-05-07T10:54:08.310Z,25.82
2023-05-07T10:55:08.294Z,25.90
2023-05-07T10:56:08.356Z,25.96
2023-05-07T10:57:08.354Z,26.03
2023-05-07T10:58:10.533Z,26.09
2023-05-07T10:59:12.962Z,26.19
2023-05-07T11:00:08.213Z,26.29
2023-05-07T11:01:08.243Z,26.35
2023-05-07T11:02:08.335Z,26.38
2023-05-07T11:03:08.808Z,26.42
2023-05-07T11:04:08.191Z,26.50
2023-05-07T11:05:08.306Z,26.53
2023-05-07T11:06:08.261Z,26.54
2023-05-07T11:07:08.111Z,26.54
2023-05-07T11:08:08.165Z,26.56
2023-05-07T11:09:08.086Z,26.57
2023-05-07T11:10:08.072Z,26.57
2023-05-07T11:11:08.081Z,26.57
2023-05-07T11:12:08.054Z,26.53
2023-05-07T11:13:08.097Z,26.50
2023-05-07T11:14:08.025Z,26.47
2023-05-07T11:15:08.029Z,26.42
2023-05-07T11:16:08.047Z,26.39
2023-05-07T11:17:07.999Z,26.36
2023-05-07T11:18:08.090Z,26.35
2023-05-07T11:19:07.970Z,26.29
2023-05-07T11:20:07.962Z,26.24
2023-05-07T11:21:07.949Z,26.20
2023-05-07T11:22:09.750Z,26.17
2023-05-07T11:23:07.947Z,26.13
2023-05-07T11:24:08.070Z,26.17
2023-05-07T11:25:07.958Z,26.09
2023-05-07T11:26:07.917Z,26.06
2023-05-07T11:27:07.985Z,26.04
2023-05-07T11:28:08.057Z,26.06
2023-05-07T11:29:08.028Z,26.03
2023-05-07T11:30:07.990Z,26.01
2023-05-07T11:31:08.015Z,26.01
2023-05-07T11:32:07.980Z,26.00
2023-05-07T11:33:08.053Z,26.01
2023-05-07T11:34:07.845Z,26.00
2023-05-07T11:35:07.913Z,25.97
2023-05-07T11:36:07.838Z,25.97
2023-05-07T11:37:07.893Z,25.94
2023-05-07T11:38:07.796Z,25.90
2023-05-07T11:39:08.098Z,25.86
2023-05-07T11:40:07.929Z,25.85
2023-05-07T11:41:07.793Z,25.81
2023-05-07T11:42:07.797Z,25.76
2023-05-07T11:43:07.758Z,25.71
2023-05-07T11:44:07.797Z,25.67
2023-05-07T11:45:07.781Z,25.64
2023-05-07T11:46:07.743Z,25.63
2023-05-07T11:47:07.723Z,25.61
2023-05-07T11:48:07.895Z,25.57
2023-05-07T11:49:08.877Z,25.54
2023-05-07T11:50:07.729Z,25.54
2023-05-07T11:51:07.846Z,25.46
2023-05-07T11:52:07.856Z,25.42
2023-05-07T11:53:07.814Z,25.38
2023-05-07T11:54:07.652Z,25.35
2023-05-07T11:55:07.674Z,25.27
2023-05-07T11:56:07.751Z,25.20
2023-05-07T11:57:07.608Z,25.16
2023-05-07T11:58:08.936Z,25.08
2023-05-07T11:59:07.570Z,25.08
2023-05-07T12:00:07.518Z,25.05
2023-05-07T12:01:07.519Z,25.01
2023-05-07T12:02:07.521Z,24.98
2023-05-07T12:03:07.779Z,24.94
2023-05-07T12:04:07.670Z,24.90
2023-05-07T12:05:07.688Z,24.87
2023-05-07T12:06:07.693Z,24.82
2023-05-07T12:07:07.645Z,24.80
2023-05-07T12:08:07.446Z,24.70
2023-05-07T12:09:07.643Z,24.67
2023-05-07T12:10:08.521Z,24.63
2023-05-07T12:11:07.453Z,24.60
2023-05-07T12:12:07.544Z,24.55
2023-05-07T12:13:07.552Z,24.53
2023-05-07T12:14:12.119Z,24.52
2023-05-07T12:15:07.565Z,24.51
2023-05-07T12:16:07.448Z,24.49
2023-05-07T12:17:08.089Z,24.46
2023-05-07T12:18:07.556Z,24.45
2023-05-07T12:19:07.478Z,24.42
2023-05-07T12:20:07.474Z,24.41
2023-05-07T12:21:07.539Z,24.39
2023-05-07T12:22:07.554Z,24.39
2023-05-07T12:23:07.691Z,24.37
2023-05-07T12:24:07.332Z,24.36
2023-05-07T12:25:07.306Z,24.34
2023-05-07T12:26:07.806Z,24.33
2023-05-07T12:27:07.252Z,24.30
2023-05-07T12:28:07.239Z,24.29
2023-05-07T12:29:07.253Z,24.27
2023-05-07T12:30:07.240Z,24.27
2023-05-07T12:31:07.236Z,24.24
2023-05-07T12:32:07.443Z,24.21
2023-05-07T12:33:07.272Z,24.18
2023-05-07T12:34:07.161Z,24.12
2023-05-07T12:35:07.462Z,24.09
2023-05-07T12:36:07.158Z,24.08
2023-05-07T12:37:07.128Z,24.04
2023-05-07T12:38:07.145Z,24.00
2023-05-07T12:39:07.113Z,23.94
2023-05-07T12:40:07.140Z,23.81
2023-05-07T12:41:07.214Z,23.72
2023-05-07T12:42:07.802Z,23.56
2023-05-07T12:43:07.115Z,23.37
2023-05-07T12:44:07.243Z,23.16
2023-05-07T12:45:08.858Z,22.96
2023-05-07T12:46:07.377Z,22.75
2023-05-07T12:47:07.138Z,22.66
2023-05-07T12:48:07.170Z,22.59
2023-05-07T12:49:07.116Z,22.51
2023-05-07T12:50:07.126Z,22.46
2023-05-07T12:51:07.033Z,22.45
2023-05-07T12:52:07.052Z,22.39
2023-05-07T12:53:07.057Z,22.35